PHTO/ITO METAR and TAF weather

Enter ICAO airport designator
Station Type Date Time Source
PHTO METAR 2019/06/18 04:53 UTC NOAA

PHTO 180453Z 14005KT 10SM BKN070 27/21 A3000 RMK AO2 SLP157 T02670211


Station Type Date Time Source
PHTO Decoded METAR 2019/06/18 04:53 UTC NOAA

HILO INTERNATIONAL AIRPORT, HI, United States (PHTO) 19-43N 155-03W 12M
Jun 18, 2019 - 12:53 AM EDT / 2019.06.18 0453 UTC
Wind: from the SE (140 degrees) at 6 MPH (5 KT):0
Visibility: 10 mile(s):0
Sky conditions: mostly cloudy
Temperature: 80.1 F (26.7 C)
Dew Point: 70.0 F (21.1 C)
Relative Humidity: 71%
Pressure (altimeter): 30 in. Hg (1015 hPa)
ob: PHTO 180453Z 14005KT 10SM BKN070 27/21 A3000 RMK AO2 SLP157 T02670211
cycle: 5

Station Type Date Time Source
PHTO TAF 2019/06/18 06:27 UTC NOAA

TAF PHTO 180523Z 1806/1906 24005KT P6SM VCSH SCT025 BKN040
FM182000 07009KT P6SM VCSH SCT025 BKN040
FM190500 24005KT P6SM VCSH SCT025 BKN040

Example: see airport list